sensor_id;sensor_type;location;lat;lon;timestamp;temperature;humidity
14471;DHT22;7321;50.802;4.336;2022-11-20T00:01:12;6.20;99.90
14471;DHT22;7321;50.802;4.336;2022-11-20T00:03:38;6.30;99.90
14471;DHT22;7321;50.802;4.336;2022-11-20T00:06:10;6.10;99.90
14471;DHT22;7321;50.802;4.336;2022-11-20T00:08:36;6.00;99.90
14471;DHT22;7321;50.802;4.336;2022-11-20T00:11:05;6.10;99.90
14471;DHT22;7321;50.802;4.336;2022-11-20T00:13:31;6.30;99.90
14471;DHT22;7321;50.802;4.336;2022-11-20T00:15:58;6.30;99.90
14471;DHT22;7321;50.802;4.336;2022-11-20T00:18:25;6.30;99.90
14471;DHT22;7321;50.802;4.336;2022-11-20T00:20:51;6.20;99.90
14471;DHT22;7321;50.802;4.336;2022-11-20T00:23:17;6.20;99.90
14471;DHT22;7321;50.802;4.336;2022-11-20T00:25:42;6.00;99.90
14471;DHT22;7321;50.802;4.336;2022-11-20T00:28:08;6.00;99.90
14471;DHT22;7321;50.802;4.336;2022-11-20T00:30:34;6.10;99.90
14471;DHT22;7321;50.802;4.336;2022-11-20T00:33:00;6.20;99.90
14471;DHT22;7321;50.802;4.336;2022-11-20T00:35:25;6.20;99.90
14471;DHT22;7321;50.802;4.336;2022-11-20T00:37:51;6.20;99.90
14471;DHT22;7321;50.802;4.336;2022-11-20T00:40:17;6.10;99.90
14471;DHT22;7321;50.802;4.336;2022-11-20T00:42:42;6.00;99.90
14471;DHT22;7321;50.802;4.336;2022-11-20T00:45:08;6.00;99.90
14471;DHT22;7321;50.802;4.336;2022-11-20T00:47:34;6.10;99.90
14471;DHT22;7321;50.802;4.336;2022-11-20T00:49:59;6.20;99.90
14471;DHT22;7321;50.802;4.336;2022-11-20T00:52:25;6.10;99.90
14471;DHT22;7321;50.802;4.336;2022-11-20T00:54:51;6.00;99.90
14471;DHT22;7321;50.802;4.336;2022-11-20T00:57:17;6.10;99.90
14471;DHT22;7321;50.802;4.336;2022-11-20T00:59:42;6.10;99.90
14471;DHT22;7321;50.802;4.336;2022-11-20T01:02:08;6.20;99.90
14471;DHT22;7321;50.802;4.336;2022-11-20T01:04:34;6.30;99.90
14471;DHT22;7321;50.802;4.336;2022-11-20T01:07:00;6.20;99.90
14471;DHT22;7321;50.802;4.336;2022-11-20T01:09:25;6.20;99.90
14471;DHT22;7321;50.802;4.336;2022-11-20T01:11:51;6.40;99.90
14471;DHT22;7321;50.802;4.336;2022-11-20T01:14:19;6.40;99.90
14471;DHT22;7321;50.802;4.336;2022-11-20T01:16:48;6.40;99.90
14471;DHT22;7321;50.802;4.336;2022-11-20T01:19:16;6.40;99.90
14471;DHT22;7321;50.802;4.336;2022-11-20T01:21:43;6.50;99.90
14471;DHT22;7321;50.802;4.336;2022-11-20T01:24:15;6.40;99.90
14471;DHT22;7321;50.802;4.336;2022-11-20T01:26:43;6.50;99.90
14471;DHT22;7321;50.802;4.336;2022-11-20T01:29:23;6.40;99.90
14471;DHT22;7321;50.802;4.336;2022-11-20T01:31:49;6.40;99.90
14471;DHT22;7321;50.802;4.336;2022-11-20T01:34:17;6.60;99.90
14471;DHT22;7321;50.802;4.336;2022-11-20T01:36:47;6.60;99.90
14471;DHT22;7321;50.802;4.336;2022-11-20T01:39:19;6.50;99.90
14471;DHT22;7321;50.802;4.336;2022-11-20T01:41:46;6.50;99.90
14471;DHT22;7321;50.802;4.336;2022-11-20T01:44:54;6.40;99.90
14471;DHT22;7321;50.802;4.336;2022-11-20T01:47:30;6.30;99.90
14471;DHT22;7321;50.802;4.336;2022-11-20T01:50:24;6.20;99.90
14471;DHT22;7321;50.802;4.336;2022-11-20T01:52:56;6.30;99.90
14471;DHT22;7321;50.802;4.336;2022-11-20T01:55:26;6.40;99.90
14471;DHT22;7321;50.802;4.336;2022-11-20T01:57:52;6.40;99.90
14471;DHT22;7321;50.802;4.336;2022-11-20T02:00:20;6.50;99.90
14471;DHT22;7321;50.802;4.336;2022-11-20T02:02:50;6.60;99.90
14471;DHT22;7321;50.802;4.336;2022-11-20T02:07:57;6.70;99.90
14471;DHT22;7321;50.802;4.336;2022-11-20T02:10:23;6.70;99.90
14471;DHT22;7321;50.802;4.336;2022-11-20T02:12:49;6.70;99.90
14471;DHT22;7321;50.802;4.336;2022-11-20T02:15:34;6.60;99.90
14471;DHT22;7321;50.802;4.336;2022-11-20T02:18:00;6.70;99.90
14471;DHT22;7321;50.802;4.336;2022-11-20T02:20:25;6.60;99.90
14471;DHT22;7321;50.802;4.336;2022-11-20T02:22:59;6.50;99.90
14471;DHT22;7321;50.802;4.336;2022-11-20T02:25:27;6.60;99.90
14471;DHT22;7321;50.802;4.336;2022-11-20T02:27:54;6.70;99.90
14471;DHT22;7321;50.802;4.336;2022-11-20T02:30:19;6.70;99.90
14471;DHT22;7321;50.802;4.336;2022-11-20T02:32:45;6.70;99.90
14471;DHT22;7321;50.802;4.336;2022-11-20T02:37:52;6.50;99.90
14471;DHT22;7321;50.802;4.336;2022-11-20T02:40:19;6.50;99.90
14471;DHT22;7321;50.802;4.336;2022-11-20T02:42:45;6.60;99.90
14471;DHT22;7321;50.802;4.336;2022-11-20T02:45:11;6.60;99.90
14471;DHT22;7321;50.802;4.336;2022-11-20T02:47:37;6.60;99.90
14471;DHT22;7321;50.802;4.336;2022-11-20T02:50:04;6.60;99.90
14471;DHT22;7321;50.802;4.336;2022-11-20T02:52:30;6.50;99.90
14471;DHT22;7321;50.802;4.336;2022-11-20T02:54:56;6.50;99.90
14471;DHT22;7321;50.802;4.336;2022-11-20T02:57:22;6.50;99.90
14471;DHT22;7321;50.802;4.336;2022-11-20T02:59:48;6.60;99.90
14471;DHT22;7321;50.802;4.336;2022-11-20T03:02:13;6.60;99.90
14471;DHT22;7321;50.802;4.336;2022-11-20T03:04:39;6.50;99.90
14471;DHT22;7321;50.802;4.336;2022-11-20T03:07:05;6.70;99.90
14471;DHT22;7321;50.802;4.336;2022-11-20T03:09:31;6.50;99.90
14471;DHT22;7321;50.802;4.336;2022-11-20T03:11:56;6.70;99.90
14471;DHT22;7321;50.802;4.336;2022-11-20T03:14:22;6.70;99.90
14471;DHT22;7321;50.802;4.336;2022-11-20T03:16:49;6.80;99.90
14471;DHT22;7321;50.802;4.336;2022-11-20T03:19:15;6.70;99.90
14471;DHT22;7321;50.802;4.336;2022-11-20T03:21:41;6.60;99.90
14471;DHT22;7321;50.802;4.336;2022-11-20T03:24:07;6.70;99.90
14471;DHT22;7321;50.802;4.336;2022-11-20T03:26:33;6.70;99.90
14471;DHT22;7321;50.802;4.336;2022-11-20T03:29:01;6.60;99.90
14471;DHT22;7321;50.802;4.336;2022-11-20T03:31:33;6.70;99.90
14471;DHT22;7321;50.802;4.336;2022-11-20T03:34:00;6.90;99.90
14471;DHT22;7321;50.802;4.336;2022-11-20T03:36:26;6.80;99.90
14471;DHT22;7321;50.802;4.336;2022-11-20T03:38:53;6.90;99.90
14471;DHT22;7321;50.802;4.336;2022-11-20T03:41:22;6.90;99.90
14471;DHT22;7321;50.802;4.336;2022-11-20T03:43:50;6.80;99.90
14471;DHT22;7321;50.802;4.336;2022-11-20T03:46:16;6.70;99.90
14471;DHT22;7321;50.802;4.336;2022-11-20T03:48:41;6.80;99.90
14471;DHT22;7321;50.802;4.336;2022-11-20T03:53:35;6.90;99.90
14471;DHT22;7321;50.802;4.336;2022-11-20T03:56:00;6.90;99.90
14471;DHT22;7321;50.802;4.336;2022-11-20T03:58:26;6.80;99.90
14471;DHT22;7321;50.802;4.336;2022-11-20T04:00:52;7.00;99.90
14471;DHT22;7321;50.802;4.336;2022-11-20T04:03:18;7.00;99.90
14471;DHT22;7321;50.802;4.336;2022-11-20T04:05:43;7.20;99.90
14471;DHT22;7321;50.802;4.336;2022-11-20T04:08:09;7.20;99.90
14471;DHT22;7321;50.802;4.336;2022-11-20T04:10:35;7.20;99.90
14471;DHT22;7321;50.802;4.336;2022-11-20T04:13:01;7.20;99.90
14471;DHT22;7321;50.802;4.336;2022-11-20T04:15:26;7.20;99.90
14471;DHT22;7321;50.802;4.336;2022-11-20T04:17:53;7.20;99.90
14471;DHT22;7321;50.802;4.336;2022-11-20T04:20:20;7.10;99.90
14471;DHT22;7321;50.802;4.336;2022-11-20T04:22:46;7.20;99.90
14471;DHT22;7321;50.802;4.336;2022-11-20T04:25:12;7.20;99.90
14471;DHT22;7321;50.802;4.336;2022-11-20T04:27:37;7.10;99.90
14471;DHT22;7321;50.802;4.336;2022-11-20T04:30:03;7.20;99.90
14471;DHT22;7321;50.802;4.336;2022-11-20T04:32:29;7.20;99.90
14471;DHT22;7321;50.802;4.336;2022-11-20T04:34:55;7.20;99.90
14471;DHT22;7321;50.802;4.336;2022-11-20T04:37:20;7.20;99.90
14471;DHT22;7321;50.802;4.336;2022-11-20T04:39:46;7.30;99.90
14471;DHT22;7321;50.802;4.336;2022-11-20T04:42:12;7.20;99.90
14471;DHT22;7321;50.802;4.336;2022-11-20T04:44:56;7.30;99.90
14471;DHT22;7321;50.802;4.336;2022-11-20T04:47:21;7.20;99.90
14471;DHT22;7321;50.802;4.336;2022-11-20T04:49:47;7.20;99.90
14471;DHT22;7321;50.802;4.336;2022-11-20T04:52:13;7.20;99.90
14471;DHT22;7321;50.802;4.336;2022-11-20T04:54:39;7.30;99.90
14471;DHT22;7321;50.802;4.336;2022-11-20T04:57:05;7.30;99.90
14471;DHT22;7321;50.802;4.336;2022-11-20T04:59:31;7.30;99.90
14471;DHT22;7321;50.802;4.336;2022-11-20T05:01:56;7.30;99.90
14471;DHT22;7321;50.802;4.336;2022-11-20T05:04:22;7.30;99.90
14471;DHT22;7321;50.802;4.336;2022-11-20T05:06:49;7.20;99.90
14471;DHT22;7321;50.802;4.336;2022-11-20T05:09:15;7.30;99.90
14471;DHT22;7321;50.802;4.336;2022-11-20T05:11:41;7.30;99.90
14471;DHT22;7321;50.802;4.336;2022-11-20T05:14:06;7.40;99.90
14471;DHT22;7321;50.802;4.336;2022-11-20T05:16:34;7.40;99.90
14471;DHT22;7321;50.802;4.336;2022-11-20T05:19:01;7.30;99.90
14471;DHT22;7321;50.802;4.336;2022-11-20T05:21:30;7.30;99.90
14471;DHT22;7321;50.802;4.336;2022-11-20T05:23:56;7.40;99.90
14471;DHT22;7321;50.802;4.336;2022-11-20T05:26:22;7.30;99.90
14471;DHT22;7321;50.802;4.336;2022-11-20T05:28:49;7.10;99.90
14471;DHT22;7321;50.802;4.336;2022-11-20T05:31:17;7.10;99.90
14471;DHT22;7321;50.802;4.336;2022-11-20T05:33:44;7.30;99.90
14471;DHT22;7321;50.802;4.336;2022-11-20T05:36:12;7.30;99.90
14471;DHT22;7321;50.802;4.336;2022-11-20T05:38:41;7.30;99.90
14471;DHT22;7321;50.802;4.336;2022-11-20T05:41:16;7.30;99.90
14471;DHT22;7321;50.802;4.336;2022-11-20T05:43:43;7.30;99.90
14471;DHT22;7321;50.802;4.336;2022-11-20T05:46:11;7.40;99.90
14471;DHT22;7321;50.802;4.336;2022-11-20T05:48:38;7.40;99.90
14471;DHT22;7321;50.802;4.336;2022-11-20T05:51:07;7.40;99.90
14471;DHT22;7321;50.802;4.336;2022-11-20T05:53:34;7.40;99.90
14471;DHT22;7321;50.802;4.336;2022-11-20T05:56:05;7.20;99.90
14471;DHT22;7321;50.802;4.336;2022-11-20T05:58:32;7.20;99.90
14471;DHT22;7321;50.802;4.336;2022-11-20T06:01:10;7.10;99.90
14471;DHT22;7321;50.802;4.336;2022-11-20T06:03:37;6.90;99.90
14471;DHT22;7321;50.802;4.336;2022-11-20T06:06:04;6.90;99.90
14471;DHT22;7321;50.802;4.336;2022-11-20T06:08:30;7.10;99.90
14471;DHT22;7321;50.802;4.336;2022-11-20T06:10:56;7.10;99.90
14471;DHT22;7321;50.802;4.336;2022-11-20T06:13:22;7.30;99.90
14471;DHT22;7321;50.802;4.336;2022-11-20T06:15:52;7.10;99.90
14471;DHT22;7321;50.802;4.336;2022-11-20T06:18:19;7.10;99.90
14471;DHT22;7321;50.802;4.336;2022-11-20T06:20:46;7.00;99.90
14471;DHT22;7321;50.802;4.336;2022-11-20T06:23:12;7.00;99.90
14471;DHT22;7321;50.802;4.336;2022-11-20T06:25:42;6.90;99.90
14471;DHT22;7321;50.802;4.336;2022-11-20T06:28:08;6.90;99.90
14471;DHT22;7321;50.802;4.336;2022-11-20T06:30:35;7.00;99.90
14471;DHT22;7321;50.802;4.336;2022-11-20T06:33:01;7.20;99.90
14471;DHT22;7321;50.802;4.336;2022-11-20T06:35:27;7.30;99.90
14471;DHT22;7321;50.802;4.336;2022-11-20T06:37:53;7.30;99.90
14471;DHT22;7321;50.802;4.336;2022-11-20T06:40:18;7.40;99.90
14471;DHT22;7321;50.802;4.336;2022-11-20T06:42:44;7.40;99.90
14471;DHT22;7321;50.802;4.336;2022-11-20T06:45:10;7.40;99.90
14471;DHT22;7321;50.802;4.336;2022-11-20T06:47:36;7.40;99.90
14471;DHT22;7321;50.802;4.336;2022-11-20T06:50:02;7.50;99.90
14471;DHT22;7321;50.802;4.336;2022-11-20T06:52:27;7.40;99.90
14471;DHT22;7321;50.802;4.336;2022-11-20T06:54:53;7.40;99.90
14471;DHT22;7321;50.802;4.336;2022-11-20T06:57:19;7.50;99.90
14471;DHT22;7321;50.802;4.336;2022-11-20T06:59:45;7.60;99.90
14471;DHT22;7321;50.802;4.336;2022-11-20T07:02:11;7.80;99.90
14471;DHT22;7321;50.802;4.336;2022-11-20T07:04:38;7.70;99.90
14471;DHT22;7321;50.802;4.336;2022-11-20T07:07:04;7.50;99.90
14471;DHT22;7321;50.802;4.336;2022-11-20T07:09:29;7.60;99.90
14471;DHT22;7321;50.802;4.336;2022-11-20T07:11:55;7.70;99.90
14471;DHT22;7321;50.802;4.336;2022-11-20T07:14:21;7.50;99.90
14471;DHT22;7321;50.802;4.336;2022-11-20T07:16:46;7.50;99.90
14471;DHT22;7321;50.802;4.336;2022-11-20T07:19:12;7.60;99.90
14471;DHT22;7321;50.802;4.336;2022-11-20T07:21:38;7.70;99.90
14471;DHT22;7321;50.802;4.336;2022-11-20T07:24:04;7.80;99.90
14471;DHT22;7321;50.802;4.336;2022-11-20T07:26:29;7.60;99.90
14471;DHT22;7321;50.802;4.336;2022-11-20T07:28:55;7.70;99.90
14471;DHT22;7321;50.802;4.336;2022-11-20T07:31:21;7.80;99.90
14471;DHT22;7321;50.802;4.336;2022-11-20T07:33:47;7.70;99.90
14471;DHT22;7321;50.802;4.336;2022-11-20T07:36:13;7.70;99.90
14471;DHT22;7321;50.802;4.336;2022-11-20T07:38:38;7.80;99.90
14471;DHT22;7321;50.802;4.336;2022-11-20T07:41:04;7.80;99.90
14471;DHT22;7321;50.802;4.336;2022-11-20T07:43:30;7.80;99.90
14471;DHT22;7321;50.802;4.336;2022-11-20T07:45:57;7.80;99.90
14471;DHT22;7321;50.802;4.336;2022-11-20T07:48:23;7.60;99.90
14471;DHT22;7321;50.802;4.336;2022-11-20T07:50:52;7.60;99.90
14471;DHT22;7321;50.802;4.336;2022-11-20T07:53:18;7.60;99.90
14471;DHT22;7321;50.802;4.336;2022-11-20T07:55:46;7.60;99.90
14471;DHT22;7321;50.802;4.336;2022-11-20T07:58:15;7.70;99.90
14471;DHT22;7321;50.802;4.336;2022-11-20T08:00:41;7.80;99.90
14471;DHT22;7321;50.802;4.336;2022-11-20T08:03:07;7.90;99.90
14471;DHT22;7321;50.802;4.336;2022-11-20T08:05:33;7.80;99.90
14471;DHT22;7321;50.802;4.336;2022-11-20T08:07:59;7.80;99.90
14471;DHT22;7321;50.802;4.336;2022-11-20T08:10:26;7.80;99.90
14471;DHT22;7321;50.802;4.336;2022-11-20T08:12:52;7.80;99.90
14471;DHT22;7321;50.802;4.336;2022-11-20T08:15:38;7.90;99.90
14471;DHT22;7321;50.802;4.336;2022-11-20T08:18:09;8.00;99.90
14471;DHT22;7321;50.802;4.336;2022-11-20T08:20:36;8.20;99.90
14471;DHT22;7321;50.802;4.336;2022-11-20T08:23:04;8.20;99.90
14471;DHT22;7321;50.802;4.336;2022-11-20T08:25:32;8.10;99.90
14471;DHT22;7321;50.802;4.336;2022-11-20T08:27:59;8.30;99.90
14471;DHT22;7321;50.802;4.336;2022-11-20T08:30:25;8.40;99.90
14471;DHT22;7321;50.802;4.336;2022-11-20T08:32:51;8.40;99.90
14471;DHT22;7321;50.802;4.336;2022-11-20T08:35:17;8.40;99.90
14471;DHT22;7321;50.802;4.336;2022-11-20T08:37:46;8.40;99.90
14471;DHT22;7321;50.802;4.336;2022-11-20T08:40:12;8.50;99.90
14471;DHT22;7321;50.802;4.336;2022-11-20T08:42:48;8.50;99.90
14471;DHT22;7321;50.802;4.336;2022-11-20T08:45:15;8.70;99.90
14471;DHT22;7321;50.802;4.336;2022-11-20T08:47:42;8.70;99.90
14471;DHT22;7321;50.802;4.336;2022-11-20T08:50:13;8.70;99.90
14471;DHT22;7321;50.802;4.336;2022-11-20T08:52:39;8.80;99.90
14471;DHT22;7321;50.802;4.336;2022-11-20T08:55:06;8.90;99.90
14471;DHT22;7321;50.802;4.336;2022-11-20T08:57:33;8.90;99.90
14471;DHT22;7321;50.802;4.336;2022-11-20T09:00:02;9.00;99.90
14471;DHT22;7321;50.802;4.336;2022-11-20T09:02:28;9.10;99.90
14471;DHT22;7321;50.802;4.336;2022-11-20T09:04:54;9.00;99.90
14471;DHT22;7321;50.802;4.336;2022-11-20T09:07:20;9.10;99.90
14471;DHT22;7321;50.802;4.336;2022-11-20T09:09:46;9.20;99.90
14471;DHT22;7321;50.802;4.336;2022-11-20T09:12:13;9.10;99.90
14471;DHT22;7321;50.802;4.336;2022-11-20T09:14:39;9.20;99.90
14471;DHT22;7321;50.802;4.336;2022-11-20T09:17:05;9.20;99.90
14471;DHT22;7321;50.802;4.336;2022-11-20T09:19:33;9.20;99.90
14471;DHT22;7321;50.802;4.336;2022-11-20T09:21:59;9.30;99.90
14471;DHT22;7321;50.802;4.336;2022-11-20T09:24:26;9.30;99.90
14471;DHT22;7321;50.802;4.336;2022-11-20T09:26:52;9.40;99.90
14471;DHT22;7321;50.802;4.336;2022-11-20T09:29:17;9.40;99.90
14471;DHT22;7321;50.802;4.336;2022-11-20T09:31:44;9.50;99.90
14471;DHT22;7321;50.802;4.336;2022-11-20T09:34:09;9.50;99.90
14471;DHT22;7321;50.802;4.336;2022-11-20T09:36:36;9.60;99.90
14471;DHT22;7321;50.802;4.336;2022-11-20T09:39:02;9.70;99.90
14471;DHT22;7321;50.802;4.336;2022-11-20T09:47:08;9.90;99.90
14471;DHT22;7321;50.802;4.336;2022-11-20T09:53:07;10.10;99.90
14471;DHT22;7321;50.802;4.336;2022-11-20T09:55:37;10.20;99.90
14471;DHT22;7321;50.802;4.336;2022-11-20T09:58:06;10.40;99.90
14471;DHT22;7321;50.802;4.336;2022-11-20T10:00:35;10.50;99.90
14471;DHT22;7321;50.802;4.336;2022-11-20T10:03:16;10.70;99.90
14471;DHT22;7321;50.802;4.336;2022-11-20T10:05:53;10.70;99.90
14471;DHT22;7321;50.802;4.336;2022-11-20T10:08:21;10.80;99.90
14471;DHT22;7321;50.802;4.336;2022-11-20T10:11:18;10.70;99.90
14471;DHT22;7321;50.802;4.336;2022-11-20T10:14:11;10.70;99.90
14471;DHT22;7321;50.802;4.336;2022-11-20T10:28:02;11.10;99.90
14471;DHT22;7321;50.802;4.336;2022-11-20T10:30:36;11.10;99.90
14471;DHT22;7321;50.802;4.336;2022-11-20T10:33:44;11.20;99.90
14471;DHT22;7321;50.802;4.336;2022-11-20T10:38:48;11.30;99.90
14471;DHT22;7321;50.802;4.336;2022-11-20T10:41:26;11.40;99.90
14471;DHT22;7321;50.802;4.336;2022-11-20T10:44:09;11.50;99.90
14471;DHT22;7321;50.802;4.336;2022-11-20T10:46:43;11.60;99.90
14471;DHT22;7321;50.802;4.336;2022-11-20T10:49:17;11.70;99.90
14471;DHT22;7321;50.802;4.336;2022-11-20T10:54:25;11.70;99.90
14471;DHT22;7321;50.802;4.336;2022-11-20T10:57:03;11.70;99.90
14471;DHT22;7321;50.802;4.336;2022-11-20T11:02:35;11.50;99.90
14471;DHT22;7321;50.802;4.336;2022-11-20T11:05:27;11.30;99.90
14471;DHT22;7321;50.802;4.336;2022-11-20T11:07:58;10.90;99.90
14471;DHT22;7321;50.802;4.336;2022-11-20T11:10:39;11.00;99.90
14471;DHT22;7321;50.802;4.336;2022-11-20T11:13:07;11.00;99.90
14471;DHT22;7321;50.802;4.336;2022-11-20T11:15:39;10.90;99.90
14471;DHT22;7321;50.802;4.336;2022-11-20T11:18:09;11.00;99.90
14471;DHT22;7321;50.802;4.336;2022-11-20T11:20:35;11.00;99.90
14471;DHT22;7321;50.802;4.336;2022-11-20T11:23:10;11.00;99.90
14471;DHT22;7321;50.802;4.336;2022-11-20T11:25:57;11.10;99.90
14471;DHT22;7321;50.802;4.336;2022-11-20T11:28:28;11.00;99.90
14471;DHT22;7321;50.802;4.336;2022-11-20T11:31:00;10.90;99.90
14471;DHT22;7321;50.802;4.336;2022-11-20T11:33:28;10.90;99.90
14471;DHT22;7321;50.802;4.336;2022-11-20T11:36:14;11.00;99.90
14471;DHT22;7321;50.802;4.336;2022-11-20T11:38:42;11.10;99.90
14471;DHT22;7321;50.802;4.336;2022-11-20T11:41:15;11.20;99.90
14471;DHT22;7321;50.802;4.336;2022-11-20T11:43:56;11.00;99.90
14471;DHT22;7321;50.802;4.336;2022-11-20T11:46:54;10.80;99.90
14471;DHT22;7321;50.802;4.336;2022-11-20T11:49:21;10.70;99.90
14471;DHT22;7321;50.802;4.336;2022-11-20T11:52:08;10.80;99.90
14471;DHT22;7321;50.802;4.336;2022-11-20T11:54:55;10.70;99.90
14471;DHT22;7321;50.802;4.336;2022-11-20T12:00:16;10.70;99.90
14471;DHT22;7321;50.802;4.336;2022-11-20T12:11:32;10.70;99.90
14471;DHT22;7321;50.802;4.336;2022-11-20T12:17:21;10.50;99.90
14471;DHT22;7321;50.802;4.336;2022-11-20T12:19:49;10.20;99.90
14471;DHT22;7321;50.802;4.336;2022-11-20T12:25:30;10.10;99.90
14471;DHT22;7321;50.802;4.336;2022-11-20T12:31:10;10.10;99.90
14471;DHT22;7321;50.802;4.336;2022-11-20T12:39:12;9.90;99.90
14471;DHT22;7321;50.802;4.336;2022-11-20T12:45:18;9.90;99.90
14471;DHT22;7321;50.802;4.336;2022-11-20T12:53:30;10.10;99.90
14471;DHT22;7321;50.802;4.336;2022-11-20T13:04:55;10.00;99.90
14471;DHT22;7321;50.802;4.336;2022-11-20T13:07:30;10.10;99.90
14471;DHT22;7321;50.802;4.336;2022-11-20T13:09:58;10.10;99.90
14471;DHT22;7321;50.802;4.336;2022-11-20T13:12:40;10.10;99.90
14471;DHT22;7321;50.802;4.336;2022-11-20T13:15:42;10.00;99.90
14471;DHT22;7321;50.802;4.336;2022-11-20T13:18:11;10.10;99.90
14471;DHT22;7321;50.802;4.336;2022-11-20T13:20:45;10.00;99.90
14471;DHT22;7321;50.802;4.336;2022-11-20T13:23:26;9.90;99.90
14471;DHT22;7321;50.802;4.336;2022-11-20T13:26:04;9.90;99.90
14471;DHT22;7321;50.802;4.336;2022-11-20T13:28:31;9.80;99.90
14471;DHT22;7321;50.802;4.336;2022-11-20T13:31:00;9.80;99.90
14471;DHT22;7321;50.802;4.336;2022-11-20T13:33:32;9.70;99.90
14471;DHT22;7321;50.802;4.336;2022-11-20T13:36:02;9.80;99.90
14471;DHT22;7321;50.802;4.336;2022-11-20T13:38:46;9.60;99.90
14471;DHT22;7321;50.802;4.336;2022-11-20T13:41:26;9.50;99.90
14471;DHT22;7321;50.802;4.336;2022-11-20T13:44:15;9.50;99.90
14471;DHT22;7321;50.802;4.336;2022-11-20T13:46:48;9.40;99.90
14471;DHT22;7321;50.802;4.336;2022-11-20T13:49:39;9.40;99.90
14471;DHT22;7321;50.802;4.336;2022-11-20T13:52:28;9.50;99.90
14471;DHT22;7321;50.802;4.336;2022-11-20T13:55:10;9.50;99.90
14471;DHT22;7321;50.802;4.336;2022-11-20T14:00:20;9.40;99.90
14471;DHT22;7321;50.802;4.336;2022-11-20T14:05:50;9.40;99.90
14471;DHT22;7321;50.802;4.336;2022-11-20T14:08:35;9.50;99.90
14471;DHT22;7321;50.802;4.336;2022-11-20T14:11:12;9.60;99.90
14471;DHT22;7321;50.802;4.336;2022-11-20T14:13:39;9.70;99.90
14471;DHT22;7321;50.802;4.336;2022-11-20T14:16:05;9.70;99.90
14471;DHT22;7321;50.802;4.336;2022-11-20T14:18:33;9.60;99.90
14471;DHT22;7321;50.802;4.336;2022-11-20T14:21:02;9.60;99.90
14471;DHT22;7321;50.802;4.336;2022-11-20T14:23:29;9.60;99.90
14471;DHT22;7321;50.802;4.336;2022-11-20T14:25:55;9.70;99.90
14471;DHT22;7321;50.802;4.336;2022-11-20T14:28:29;9.70;99.90
14471;DHT22;7321;50.802;4.336;2022-11-20T14:30:56;9.80;99.90
14471;DHT22;7321;50.802;4.336;2022-11-20T14:33:23;9.90;99.90
14471;DHT22;7321;50.802;4.336;2022-11-20T14:35:53;9.80;99.90
14471;DHT22;7321;50.802;4.336;2022-11-20T14:38:26;9.80;99.90
14471;DHT22;7321;50.802;4.336;2022-11-20T14:40:53;9.90;99.90
14471;DHT22;7321;50.802;4.336;2022-11-20T14:43:26;9.80;99.90
14471;DHT22;7321;50.802;4.336;2022-11-20T14:46:00;9.80;99.90
14471;DHT22;7321;50.802;4.336;2022-11-20T14:48:43;9.80;99.90
14471;DHT22;7321;50.802;4.336;2022-11-20T14:51:43;9.90;99.90
14471;DHT22;7321;50.802;4.336;2022-11-20T14:54:15;10.00;99.90
14471;DHT22;7321;50.802;4.336;2022-11-20T14:56:41;10.00;99.90
14471;DHT22;7321;50.802;4.336;2022-11-20T14:59:08;9.90;99.90
14471;DHT22;7321;50.802;4.336;2022-11-20T15:01:35;9.90;99.90
14471;DHT22;7321;50.802;4.336;2022-11-20T15:04:10;9.80;99.90
14471;DHT22;7321;50.802;4.336;2022-11-20T15:06:37;9.80;99.90
14471;DHT22;7321;50.802;4.336;2022-11-20T15:09:13;9.80;99.90
14471;DHT22;7321;50.802;4.336;2022-11-20T15:12:15;9.90;99.90
14471;DHT22;7321;50.802;4.336;2022-11-20T15:14:58;10.20;99.90
14471;DHT22;7321;50.802;4.336;2022-11-20T15:17:46;10.20;99.90
14471;DHT22;7321;50.802;4.336;2022-11-20T15:20:31;10.20;99.90
14471;DHT22;7321;50.802;4.336;2022-11-20T15:23:20;10.30;99.90
14471;DHT22;7321;50.802;4.336;2022-11-20T15:25:48;10.20;99.90
14471;DHT22;7321;50.802;4.336;2022-11-20T15:28:30;10.20;99.90
14471;DHT22;7321;50.802;4.336;2022-11-20T15:33:54;10.20;99.90
14471;DHT22;7321;50.802;4.336;2022-11-20T15:36:29;10.30;99.90
14471;DHT22;7321;50.802;4.336;2022-11-20T15:38:55;10.30;99.90
14471;DHT22;7321;50.802;4.336;2022-11-20T15:41:20;10.30;99.90
14471;DHT22;7321;50.802;4.336;2022-11-20T15:43:46;10.40;99.90
14471;DHT22;7321;50.802;4.336;2022-11-20T15:46:30;10.50;99.90
14471;DHT22;7321;50.802;4.336;2022-11-20T15:49:19;10.50;99.90
14471;DHT22;7321;50.802;4.336;2022-11-20T15:51:50;10.50;99.90
14471;DHT22;7321;50.802;4.336;2022-11-20T15:54:23;10.40;99.90
14471;DHT22;7321;50.802;4.336;2022-11-20T15:56:50;10.40;99.90
14471;DHT22;7321;50.802;4.336;2022-11-20T15:59:23;10.30;99.90
14471;DHT22;7321;50.802;4.336;2022-11-20T16:01:50;10.10;99.90
14471;DHT22;7321;50.802;4.336;2022-11-20T16:04:19;10.20;99.90
14471;DHT22;7321;50.802;4.336;2022-11-20T16:06:51;10.20;99.90
14471;DHT22;7321;50.802;4.336;2022-11-20T16:09:24;10.30;99.90
14471;DHT22;7321;50.802;4.336;2022-11-20T16:11:58;10.30;99.90
14471;DHT22;7321;50.802;4.336;2022-11-20T16:14:34;10.30;99.90
14471;DHT22;7321;50.802;4.336;2022-11-20T16:17:25;10.40;99.90
14471;DHT22;7321;50.802;4.336;2022-11-20T16:20:30;10.50;99.90
14471;DHT22;7321;50.802;4.336;2022-11-20T16:23:05;10.50;99.90
14471;DHT22;7321;50.802;4.336;2022-11-20T16:25:40;10.50;99.90
14471;DHT22;7321;50.802;4.336;2022-11-20T16:28:06;10.60;99.90
14471;DHT22;7321;50.802;4.336;2022-11-20T16:30:34;10.50;99.90
14471;DHT22;7321;50.802;4.336;2022-11-20T16:33:01;10.50;99.90
14471;DHT22;7321;50.802;4.336;2022-11-20T16:35:33;10.50;99.90
14471;DHT22;7321;50.802;4.336;2022-11-20T16:38:04;10.50;99.90
14471;DHT22;7321;50.802;4.336;2022-11-20T16:40:39;10.50;99.90
14471;DHT22;7321;50.802;4.336;2022-11-20T16:43:29;10.50;99.90
14471;DHT22;7321;50.802;4.336;2022-11-20T16:46:04;10.50;99.90
14471;DHT22;7321;50.802;4.336;2022-11-20T16:48:40;10.40;99.90
14471;DHT22;7321;50.802;4.336;2022-11-20T16:51:12;10.40;99.90
14471;DHT22;7321;50.802;4.336;2022-11-20T16:53:46;10.30;99.90
14471;DHT22;7321;50.802;4.336;2022-11-20T16:56:14;10.20;99.90
14471;DHT22;7321;50.802;4.336;2022-11-20T16:58:45;10.30;99.90
14471;DHT22;7321;50.802;4.336;2022-11-20T17:01:21;10.40;99.90
14471;DHT22;7321;50.802;4.336;2022-11-20T17:04:00;10.50;99.90
14471;DHT22;7321;50.802;4.336;2022-11-20T17:06:28;10.50;99.90
14471;DHT22;7321;50.802;4.336;2022-11-20T17:08:55;10.40;99.90
14471;DHT22;7321;50.802;4.336;2022-11-20T17:11:21;10.30;99.90
14471;DHT22;7321;50.802;4.336;2022-11-20T17:13:48;10.30;99.90
14471;DHT22;7321;50.802;4.336;2022-11-20T17:16:21;10.30;99.90
14471;DHT22;7321;50.802;4.336;2022-11-20T17:18:47;10.30;99.90
14471;DHT22;7321;50.802;4.336;2022-11-20T17:21:25;10.20;99.90
14471;DHT22;7321;50.802;4.336;2022-11-20T17:24:05;10.30;99.90
14471;DHT22;7321;50.802;4.336;2022-11-20T17:26:31;10.20;99.90
14471;DHT22;7321;50.802;4.336;2022-11-20T17:29:02;10.20;99.90
14471;DHT22;7321;50.802;4.336;2022-11-20T17:31:29;10.10;99.90
14471;DHT22;7321;50.802;4.336;2022-11-20T17:34:04;10.20;99.90
14471;DHT22;7321;50.802;4.336;2022-11-20T17:36:31;10.20;99.90
14471;DHT22;7321;50.802;4.336;2022-11-20T17:38:57;10.30;99.90
14471;DHT22;7321;50.802;4.336;2022-11-20T17:41:25;10.20;99.90
14471;DHT22;7321;50.802;4.336;2022-11-20T17:43:56;10.20;99.90
14471;DHT22;7321;50.802;4.336;2022-11-20T17:46:54;10.20;99.90